Terminal Aerodrome Forecast
Issued by NWS

Home | Current Version | Previous Version | Graphics & Text | Print | Product List | Glossary On
Versions: 1 2 3 4 5 6 7 8 9 10 11 12 13 14 15 16 17 18 19 20 21 22 23 24 25 26 27 28 29
925
FTUS43 KBIS 232113 AAC
TAFDIK
TAF AMD
KDIK 232113Z 2321/2418 05013KT 3SM -SN BR OVC003
      TEMPO 2321/2323 6SM BR SCT002 OVC007
     FM232300 04008KT 5SM BR OVC007
     FM240200 04007KT P6SM OVC005
     FM241400 01006KT P6SM SCT005 BKN015
     FM241700 35005KT P6SM BKN035=

USA.gov is the U.S. government's official web portal to all federal, state and local government web resources and services.